Time;durP1;ratioP1;P1;durP2;ratioP2;P2;SDS_P1;SDS_P2;PMS_P1;PMS_P2;Temp;Humidity;BMP_temperature;BMP_pressure;BME280_temperature;BME280_humidity;BME280_pressure;Samples;Min_cycle;Max_cycle;Signal;HPM_P1;HPM_P2
2022/09/17 00:01:44;;;;;;;10.20;7.40;;;;;;;16.67;83.90;99935.81;107857;1241;74004;-76
2022/09/17 00:04:13;;;;;;;12.10;7.50;;;;;;;16.73;83.09;99939.69;108078;1241;63067;-76
2022/09/17 00:06:41;;;;;;;10.90;7.40;;;;;;;16.72;83.02;99937.64;107984;1242;61656;-75
2022/09/17 00:09:11;;;;;;;10.70;7.90;;;;;;;16.67;83.19;99934.76;108059;1241;64238;-77
2022/09/17 00:11:42;;;;;;;10.50;7.60;;;;;;;16.60;83.45;99933.13;108025;1241;71535;-77
2022/09/17 00:14:16;;;;;;;11.40;8.30;;;;;;;16.56;84.85;99928.85;107984;1241;70428;-74
2022/09/17 00:16:48;;;;;;;12.70;8.10;;;;;;;16.60;84.43;99926.14;107763;1244;74030;-77
2022/09/17 00:19:21;;;;;;;10.70;8.60;;;;;;;16.63;83.51;99923.51;107963;1241;64394;-78
2022/09/17 00:21:51;;;;;;;11.90;8.60;;;;;;;16.63;84.26;99918.39;107747;1244;61600;-76
2022/09/17 00:24:20;;;;;;;11.40;8.10;;;;;;;16.60;83.56;99916.27;108042;1241;71670;-78
2022/09/17 00:26:49;;;;;;;9.60;7.60;;;;;;;16.65;82.56;99926.39;107897;1243;69551;-79
2022/09/17 00:29:18;;;;;;;10.60;8.10;;;;;;;16.64;83.03;99931.11;107931;1241;60044;-81
2022/09/17 00:31:47;;;;;;;11.90;8.70;;;;;;;16.61;82.67;99926.73;107988;1241;71460;-81
2022/09/17 00:34:16;;;;;;;11.50;7.90;;;;;;;16.58;83.64;99928.55;107959;1241;63245;-78
2022/09/17 00:36:45;;;;;;;14.20;10.10;;;;;;;16.61;84.39;99925.51;108324;1241;61060;-73
2022/09/17 00:39:15;;;;;;;13.60;8.20;;;;;;;16.61;83.73;99928.73;108026;1244;75312;-75
2022/09/17 00:41:44;;;;;;;10.50;8.00;;;;;;;16.58;85.03;99926.18;108524;1241;72250;-77
2022/09/17 00:44:47;;;;;;;12.60;8.40;;;;;;;16.56;86.29;99919.72;108385;1241;70435;-78
2022/09/17 00:47:34;;;;;;;11.20;8.20;;;;;;;16.55;86.61;99914.21;108211;1241;74479;-78
2022/09/17 00:50:13;;;;;;;15.40;9.20;;;;;;;16.54;86.44;99910.40;107890;1241;64313;-78
2022/09/17 00:52:49;;;;;;;11.90;8.70;;;;;;;16.53;86.53;99913.58;107799;1242;60301;-79
2022/09/17 00:55:41;;;;;;;13.70;8.70;;;;;;;16.54;85.84;99911.09;106216;1241;1917575;-81
2022/09/17 00:58:20;;;;;;;12.00;8.90;;;;;;;16.57;85.08;99905.66;108057;1241;72465;-77
2022/09/17 01:00:49;;;;;;;11.80;8.60;;;;;;;16.61;84.65;99904.69;107832;1240;60509;-76
2022/09/17 01:03:18;;;;;;;10.80;8.60;;;;;;;16.65;84.05;99906.67;107772;1241;74293;-76
2022/09/17 01:06:06;;;;;;;10.60;8.30;;;;;;;16.68;83.46;99904.99;108119;1241;63479;-74
2022/09/17 01:08:48;;;;;;;14.90;8.30;;;;;;;16.74;82.84;99906.86;108167;1241;61210;-78
2022/09/17 01:11:38;;;;;;;11.40;8.80;;;;;;;16.73;82.91;99909.75;107787;1244;64243;-76
2022/09/17 01:14:38;;;;;;;14.00;8.10;;;;;;;16.78;82.88;99901.83;108140;1241;72664;-77
2022/09/17 01:17:47;;;;;;;10.40;8.10;;;;;;;16.84;82.23;99895.17;108183;1241;59608;-74
2022/09/17 01:20:51;;;;;;;13.20;8.40;;;;;;;16.89;81.90;99893.23;108155;1241;63615;-73
2022/09/17 01:24:15;;;;;;;14.20;9.80;;;;;;;16.91;81.87;99893.66;108207;1241;60000;-73
2022/09/17 01:27:32;;;;;;;11.50;9.70;;;;;;;16.89;82.14;99890.73;107926;1241;59016;-76
2022/09/17 01:30:47;;;;;;;17.20;9.90;;;;;;;16.85;83.73;99895.98;108117;1241;74898;-76
2022/09/17 01:33:43;;;;;;;14.60;10.60;;;;;;;16.83;84.07;99897.52;109332;1244;62257;-81
2022/09/17 01:36:24;;;;;;;12.30;9.50;;;;;;;16.83;84.20;99892.51;108665;1241;69206;-81
2022/09/17 01:39:18;;;;;;;13.70;9.00;;;;;;;16.80;84.56;99891.54;108178;1241;74829;-83
2022/09/17 01:42:02;;;;;;;10.60;8.60;;;;;;;16.75;85.03;99888.63;108196;1241;60017;-77
2022/09/17 01:44:54;;;;;;;13.40;9.10;;;;;;;16.75;85.58;99883.21;108138;1241;57882;-80
2022/09/17 01:47:31;;;;;;;15.80;8.50;;;;;;;16.73;85.89;99882.68;108204;1241;63773;-79
2022/09/17 01:50:21;;;;;;;10.80;8.40;;;;;;;16.75;85.91;99879.71;108184;1241;61609;-78
2022/09/17 01:52:55;;;;;;;12.30;8.00;;;;;;;16.72;86.12;99878.06;107887;1242;59952;-75
2022/09/17 01:55:29;;;;;;;11.80;8.20;;;;;;;16.69;85.73;99881.72;107818;1242;72924;-75
2022/09/17 01:58:38;;;;;;;9.90;8.10;;;;;;;16.69;86.31;99883.30;108166;1241;58948;-77
2022/09/17 02:01:11;;;;;;;9.80;7.50;;;;;;;16.68;85.14;99877.92;108197;1241;59557;-77
2022/09/17 02:04:01;;;;;;;10.50;7.00;;;;;;;16.64;86.26;99884.86;108203;1241;74750;-76
2022/09/17 02:06:37;;;;;;;10.70;7.60;;;;;;;16.61;87.19;99894.50;108171;1241;61471;-76
2022/09/17 02:09:22;;;;;;;9.80;7.60;;;;;;;16.63;85.59;99897.06;108150;1241;69749;-77
2022/09/17 02:11:57;;;;;;;11.70;7.80;;;;;;;16.61;85.27;99903.13;108165;1241;74764;-74
2022/09/17 02:14:51;;;;;;;12.30;7.40;;;;;;;16.55;84.55;99908.59;108134;1243;59591;-76
2022/09/17 02:17:38;;;;;;;;;;;;;;;16.42;87.18;99906.77;108351;1243;60512;-77
2022/09/17 02:20:07;;;;;;;11.80;8.20;;;;;;;16.37;89.41;99900.35;108338;1241;74502;-77
2022/09/17 02:22:47;;;;;;;9.70;7.40;;;;;;;16.36;90.38;99896.44;108560;1241;70061;-76
2022/09/17 02:25:22;;;;;;;9.80;8.10;;;;;;;16.33;91.17;99896.70;108557;1241;70371;-76
2022/09/17 02:28:27;;;;;;;11.00;8.10;;;;;;;16.37;91.20;99903.64;108547;1241;74147;-73
2022/09/17 02:30:56;;;;;;;11.70;8.30;;;;;;;16.39;88.84;99903.84;108232;1241;63326;-78
2022/09/17 02:33:27;;;;;;;11.90;8.50;;;;;;;16.36;88.36;99902.89;108262;1240;58983;-78
2022/09/17 02:35:55;;;;;;;12.60;8.20;;;;;;;16.32;89.96;99901.29;107896;1241;64056;-78
2022/09/17 02:38:26;;;;;;;12.40;8.40;;;;;;;16.30;90.28;99901.70;108287;1241;62512;-77
2022/09/17 02:41:20;;;;;;;13.80;8.90;;;;;;;16.29;89.36;99898.10;108295;1240;70588;-77
2022/09/17 02:44:37;;;;;;;10.30;8.10;;;;;;;16.26;88.50;99897.83;107906;1244;73235;-76
2022/09/17 02:47:33;;;;;;;10.60;7.90;;;;;;;16.22;88.57;99898.80;108143;1241;59555;-78
2022/09/17 02:50:55;;;;;;;9.40;7.90;;;;;;;16.20;87.97;99893.46;107918;1241;59470;-78
2022/09/17 02:54:09;;;;;;;11.90;8.80;;;;;;;16.19;90.77;99889.15;108152;1241;74871;-77
2022/09/17 02:56:54;;;;;;;10.80;8.40;;;;;;;16.21;91.24;99885.95;108160;1241;61213;-74
2022/09/17 03:00:05;;;;;;;11.30;8.70;;;;;;;16.24;91.39;99882.27;108020;1241;69695;-78
2022/09/17 03:02:42;;;;;;;11.90;8.50;;;;;;;16.29;91.75;99882.23;108124;1240;74418;-72
2022/09/17 03:05:12;;;;;;;13.10;9.00;;;;;;;16.34;91.69;99875.59;108015;1241;63028;-69
2022/09/17 03:07:41;;;;;;;11.90;9.20;;;;;;;16.34;92.49;99869.02;107874;1243;59642;-69
2022/09/17 03:10:11;;;;;;;14.10;9.70;;;;;;;16.28;92.95;99864.56;108097;1241;74771;-70
2022/09/17 03:12:40;;;;;;;14.00;9.70;;;;;;;16.24;93.13;99870.36;108204;1241;61480;-69
2022/09/17 03:15:09;;;;;;;13.40;9.70;;;;;;;16.23;90.79;99870.77;107694;1241;60036;-70
2022/09/17 03:17:39;;;;;;;11.30;9.90;;;;;;;16.05;91.71;99864.27;107886;1241;72069;-69
2022/09/17 03:20:08;;;;;;;16.60;10.00;;;;;;;15.92;93.46;99859.70;108169;1241;62492;-69
2022/09/17 03:22:37;;;;;;;14.10;9.60;;;;;;;15.83;94.28;99858.59;108154;1241;60675;-78
2022/09/17 03:25:07;;;;;;;14.20;10.30;;;;;;;15.75;94.06;99862.60;107788;1241;74333;-79
2022/09/17 03:27:35;;;;;;;14.70;10.60;;;;;;;15.74;94.05;99867.64;107764;1244;71741;-81
2022/09/17 03:30:05;;;;;;;12.20;10.20;;;;;;;15.76;95.28;99865.50;107985;1241;61191;-70
2022/09/17 03:32:34;;;;;;;14.90;11.00;;;;;;;15.81;96.86;99862.47;107988;1241;71054;-69
2022/09/17 03:35:04;;;;;;;12.30;9.60;;;;;;;15.76;95.75;99857.50;107930;1241;61195;-69
2022/09/17 03:37:32;;;;;;;13.50;10.30;;;;;;;15.76;94.97;99854.67;107950;1241;59599;-70
2022/09/17 03:40:01;;;;;;;15.30;10.60;;;;;;;15.79;95.21;99843.41;107738;1242;72884;-73
2022/09/17 03:42:30;;;;;;;13.60;11.20;;;;;;;15.82;97.08;99839.70;108055;1241;71424;-71
2022/09/17 03:44:59;;;;;;;12.10;10.20;;;;;;;15.83;99.12;99840.16;107836;1244;68472;-69
2022/09/17 03:47:28;;;;;;;14.50;11.10;;;;;;;15.84;99.17;99840.45;107929;1244;73648;-72
2022/09/17 03:49:57;;;;;;;14.30;11.10;;;;;;;15.86;99.12;99843.31;108117;1241;59656;-70
2022/09/17 03:52:26;;;;;;;15.70;11.20;;;;;;;15.87;98.91;99839.20;107871;1244;59482;-71
2022/09/17 03:54:54;;;;;;;16.30;11.20;;;;;;;15.84;97.95;99831.31;108021;1244;74005;-71
2022/09/17 03:57:23;;;;;;;17.20;11.10;;;;;;;15.88;98.67;99835.38;107907;1243;71532;-70
2022/09/17 03:59:52;;;;;;;13.40;10.60;;;;;;;15.90;98.59;99837.63;107912;1243;68106;-71
2022/09/17 04:02:21;;;;;;;15.10;10.70;;;;;;;15.92;98.18;99840.25;107943;1243;73144;-70
2022/09/17 04:04:52;;;;;;;11.20;9.20;;;;;;;15.91;97.07;99838.80;107798;1243;62545;-71
2022/09/17 04:07:24;;;;;;;13.70;10.70;;;;;;;15.84;96.01;99833.71;107944;1244;60079;-70
2022/09/17 04:09:53;;;;;;;12.50;10.70;;;;;;;15.72;98.22;99834.54;108155;1241;73727;-69
2022/09/17 04:12:21;;;;;;;12.30;10.30;;;;;;;15.63;99.53;99839.49;108130;1241;71915;-70
2022/09/17 04:14:50;;;;;;;18.00;10.60;;;;;;;15.65;99.29;99843.52;108059;1241;68722;-70
2022/09/17 04:17:19;;;;;;;14.50;11.00;;;;;;;15.67;98.44;99846.69;107916;1244;73007;-68
2022/09/17 04:19:48;;;;;;;12.30;10.50;;;;;;;15.68;97.15;99852.58;108070;1241;62985;-69
2022/09/17 04:22:17;;;;;;;13.30;9.40;;;;;;;15.68;97.14;99849.70;107818;1243;60922;-71
2022/09/17 04:24:46;;;;;;;15.10;11.40;;;;;;;15.70;99.48;99850.73;107870;1244;73495;-69
2022/09/17 04:27:15;;;;;;;13.00;10.00;;;;;;;15.74;99.62;99852.20;107762;1243;69836;-70
2022/09/17 04:29:44;;;;;;;14.00;10.10;;;;;;;15.79;99.20;99856.79;107713;1243;69726;-68
2022/09/17 04:32:13;;;;;;;12.20;10.30;;;;;;;15.79;99.26;99853.10;107550;1246;72159;-74
2022/09/17 04:34:42;;;;;;;15.80;10.20;;;;;;;15.78;97.72;99856.16;107634;1245;60756;-70
2022/09/17 04:37:10;;;;;;;12.50;9.20;;;;;;;15.76;96.62;99860.60;107595;1244;60513;-70
2022/09/17 04:39:39;;;;;;;12.10;9.10;;;;;;;15.71;96.50;99853.96;107772;1243;73948;-72
2022/09/17 04:42:08;;;;;;;15.20;9.40;;;;;;;15.68;97.63;99858.98;107725;1244;69581;-70
2022/09/17 04:44:37;;;;;;;13.40;9.10;;;;;;;15.64;99.28;99864.90;107741;1244;70022;-74
2022/09/17 04:47:05;;;;;;;12.90;9.30;;;;;;;15.61;98.72;99862.65;107951;1241;74523;-71
2022/09/17 04:49:34;;;;;;;10.60;8.60;;;;;;;15.60;97.74;99859.05;108121;1241;61099;-72
2022/09/17 04:52:03;;;;;;;11.40;8.70;;;;;;;15.59;98.92;99858.09;108166;1241;59434;-72
2022/09/17 04:54:32;;;;;;;13.40;8.40;;;;;;;15.60;99.79;99861.27;108136;1241;63003;-71
2022/09/17 04:57:01;;;;;;;13.80;8.40;;;;;;;15.60;100.00;99858.05;108080;1241;72658;-72
2022/09/17 04:59:29;;;;;;;11.90;9.90;;;;;;;15.61;100.00;99856.44;108132;1241;69547;-70
2022/09/17 05:01:58;;;;;;;15.50;9.70;;;;;;;15.73;100.00;99855.37;108058;1242;72927;-72
2022/09/17 05:04:27;;;;;;;13.60;9.20;;;;;;;15.80;100.00;99850.01;108113;1241;62806;-70
2022/09/17 05:06:56;;;;;;;12.20;8.90;;;;;;;15.78;100.00;99849.91;108017;1243;59705;-69
2022/09/17 05:09:25;;;;;;;11.30;9.10;;;;;;;15.74;100.00;99852.77;108064;1241;72115;-70
2022/09/17 05:11:54;;;;;;;11.50;8.60;;;;;;;15.72;100.00;99848.27;108073;1242;71742;-72
2022/09/17 05:14:23;;;;;;;13.50;9.30;;;;;;;15.77;100.00;99842.10;107926;1241;67983;-72
2022/09/17 05:16:52;;;;;;;13.40;8.90;;;;;;;15.81;100.00;99835.15;107811;1241;72402;-71
2022/09/17 05:19:21;;;;;;;13.60;10.10;;;;;;;15.83;100.00;99828.45;107826;1244;62241;-71
2022/09/17 05:21:49;;;;;;;11.00;8.50;;;;;;;15.80;100.00;99829.99;108042;1242;60938;-70
2022/09/17 05:24:18;;;;;;;13.70;9.40;;;;;;;15.81;100.00;99827.72;108013;1241;73358;-70
2022/09/17 05:26:47;;;;;;;12.80;9.50;;;;;;;15.87;100.00;99825.89;107845;1244;69918;-71
2022/09/17 05:29:16;;;;;;;17.50;9.30;;;;;;;15.93;100.00;99824.88;107807;1244;70275;-70
2022/09/17 05:31:44;;;;;;;16.40;10.50;;;;;;;15.95;100.00;99827.45;107877;1242;74048;-74
2022/09/17 05:34:13;;;;;;;18.60;12.50;;;;;;;15.96;100.00;99832.84;107999;1241;61778;-74
2022/09/17 05:36:42;;;;;;;14.40;12.20;;;;;;;15.98;100.00;99835.27;108065;1241;59569;-71
2022/09/17 05:39:11;;;;;;;17.90;11.60;;;;;;;16.00;100.00;99833.83;108018;1241;72757;-69
2022/09/17 05:41:40;;;;;;;15.40;10.70;;;;;;;16.02;100.00;99828.49;107876;1241;72802;-72
2022/09/17 05:44:09;;;;;;;15.40;11.20;;;;;;;16.05;100.00;99836.89;107953;1241;69850;-71
2022/09/17 05:46:42;;;;;;;13.80;10.10;;;;;;;16.08;100.00;99837.63;108948;1241;73469;-71
2022/09/17 05:49:14;;;;;;;12.40;9.60;;;;;;;16.12;100.00;99843.52;107968;1240;62675;-71
2022/09/17 05:51:43;;;;;;;12.90;8.60;;;;;;;16.15;100.00;99841.92;108046;1241;61447;-68
2022/09/17 05:54:11;;;;;;;12.60;9.80;;;;;;;16.17;99.99;99834.67;107722;1242;75533;-70
2022/09/17 05:56:40;;;;;;;14.60;9.90;;;;;;;16.21;100.00;99833.59;108000;1241;69352;-68
2022/09/17 05:59:09;;;;;;;13.30;10.20;;;;;;;16.20;99.73;99834.58;108035;1241;60039;-70
2022/09/17 06:01:39;;;;;;;15.80;10.00;;;;;;;16.22;99.50;99838.83;107800;1242;62569;-70
2022/09/17 06:04:08;;;;;;;13.50;9.40;;;;;;;16.22;99.02;99838.02;108125;1241;60599;-72
2022/09/17 06:06:38;;;;;;;16.60;9.70;;;;;;;16.21;99.82;99831.70;108011;1241;58909;-71
2022/09/17 06:09:11;;;;;;;15.00;10.20;;;;;;;16.20;99.75;99825.41;107890;1241;73584;-72
2022/09/17 06:11:39;;;;;;;;;;;;;;;16.24;99.98;99815.85;107779;1244;71042;-70
2022/09/17 06:14:09;;;;;;;13.80;9.90;;;;;;;16.26;100.00;99811.79;108010;1240;59210;-70
2022/09/17 06:16:37;;;;;;;15.50;12.30;;;;;;;16.29;99.99;99811.45;108006;1241;72090;-71
2022/09/17 06:19:06;;;;;;;14.90;10.90;;;;;;;16.32;100.00;99808.29;108012;1242;59566;-71
2022/09/17 06:21:35;;;;;;;14.20;10.30;;;;;;;16.33;100.00;99808.70;108056;1241;59727;-72
2022/09/17 06:24:04;;;;;;;12.20;9.50;;;;;;;16.36;100.00;99803.63;107996;1241;62986;-72
2022/09/17 06:26:33;;;;;;;15.00;10.10;;;;;;;16.36;99.77;99801.65;108110;1241;71002;-73
2022/09/17 06:29:01;;;;;;;15.50;9.70;;;;;;;16.41;99.51;99797.74;107966;1241;70722;-71
2022/09/17 06:31:30;;;;;;;13.30;10.40;;;;;;;16.45;99.47;99796.48;108030;1241;64239;-70
2022/09/17 06:33:59;;;;;;;13.60;10.40;;;;;;;16.53;99.26;99802.33;107992;1241;60562;-72
2022/09/17 06:36:29;;;;;;;14.40;10.40;;;;;;;16.57;98.96;99804.58;108029;1241;57830;-70
2022/09/17 06:38:58;;;;;;;14.70;9.20;;;;;;;16.60;99.04;99809.37;108066;1242;73235;-71
2022/09/17 06:41:26;;;;;;;16.30;10.20;;;;;;;16.59;98.72;99813.48;107953;1241;73100;-70
2022/09/17 06:43:57;;;;;;;13.10;10.50;;;;;;;16.60;99.27;99819.42;108056;1241;68578;-79
2022/09/17 06:46:26;;;;;;;14.20;9.70;;;;;;;16.65;98.06;99823.05;108100;1243;73707;-71
2022/09/17 06:48:56;;;;;;;13.90;11.20;;;;;;;16.60;97.55;99822.69;107894;1241;62315;-73
2022/09/17 06:51:25;;;;;;;21.30;11.30;;;;;;;16.51;97.81;99833.20;108063;1241;61232;-73
2022/09/17 06:53:53;;;;;;;15.70;11.00;;;;;;;16.45;99.11;99844.73;108022;1241;74510;-72
2022/09/17 06:56:22;;;;;;;12.40;9.60;;;;;;;16.47;98.55;99860.56;108246;1241;73101;-71
2022/09/17 06:58:52;;;;;;;13.50;10.20;;;;;;;16.47;97.97;99864.95;108045;1241;60736;-71
2022/09/17 07:01:21;;;;;;;12.20;9.40;;;;;;;16.44;98.46;99867.55;108217;1242;63313;-68
2022/09/17 07:03:50;;;;;;;12.50;9.00;;;;;;;16.40;99.19;99877.33;107890;1241;61323;-72
2022/09/17 07:06:19;;;;;;;12.10;9.20;;;;;;;16.42;98.65;99884.70;107960;1243;59761;-72
2022/09/17 07:08:48;;;;;;;12.00;9.70;;;;;;;16.40;99.03;99889.79;107965;1242;63977;-72
2022/09/17 07:11:17;;;;;;;16.80;11.00;;;;;;;16.39;98.65;99893.11;107800;1244;61643;-69
2022/09/17 07:13:46;;;;;;;13.20;10.50;;;;;;;16.36;98.45;99896.96;107992;1241;69428;-72
2022/09/17 07:16:15;;;;;;;14.00;11.10;;;;;;;16.34;98.16;99897.15;107955;1243;62465;-70
2022/09/17 07:18:44;;;;;;;17.50;13.00;;;;;;;16.32;98.05;99900.69;107943;1242;61330;-72
2022/09/17 07:21:13;;;;;;;13.20;10.70;;;;;;;16.29;99.31;99899.84;108172;1241;61689;-71
2022/09/17 07:23:42;;;;;;;15.90;11.30;;;;;;;16.30;98.43;99906.77;107760;1243;72756;-70
2022/09/17 07:26:15;;;;;;;14.40;11.40;;;;;;;16.32;97.87;99921.27;107942;1241;61444;-73
2022/09/17 07:28:46;;;;;;;16.20;11.00;;;;;;;16.33;97.76;99924.67;108135;1241;68852;-73
2022/09/17 07:31:15;;;;;;;17.10;11.50;;;;;;;16.34;97.99;99925.08;108041;1244;72027;-71
2022/09/17 07:33:44;;;;;;;12.70;9.90;;;;;;;16.36;98.46;99926.77;107950;1242;59579;-73
2022/09/17 07:36:18;;;;;;;15.40;11.20;;;;;;;16.38;98.12;99927.29;108209;1241;58116;-71
2022/09/17 07:38:47;;;;;;;14.10;10.90;;;;;;;16.36;98.33;99924.54;107971;1243;63036;-73
2022/09/17 07:41:17;;;;;;;14.30;11.20;;;;;;;16.35;98.88;99925.98;108116;1241;73254;-73
2022/09/17 07:43:45;;;;;;;14.00;11.40;;;;;;;16.35;98.69;99918.16;107827;1244;70937;-72
2022/09/17 07:46:18;;;;;;;17.80;11.70;;;;;;;16.33;98.73;99914.27;108126;1244;63776;-72
2022/09/17 07:48:48;;;;;;;13.20;11.40;;;;;;;16.34;99.02;99909.84;107900;1243;62179;-72
2022/09/17 07:51:23;;;;;;;14.20;10.30;;;;;;;16.39;98.55;99904.51;107946;1243;61861;-71
2022/09/17 07:53:54;;;;;;;14.10;10.00;;;;;;;16.42;98.44;99905.63;107885;1243;74304;-72
2022/09/17 07:56:25;;;;;;;12.90;9.90;;;;;;;16.46;98.27;99915.54;108046;1241;72500;-68
2022/09/17 07:58:54;;;;;;;12.10;9.90;;;;;;;16.47;98.61;99921.39;108178;1244;60360;-70
2022/09/17 08:01:26;;;;;;;12.50;9.10;;;;;;;16.51;98.47;99926.84;108096;1243;63100;-68
2022/09/17 08:03:55;;;;;;;11.50;8.70;;;;;;;16.50;98.30;99928.27;108064;1243;59629;-70
2022/09/17 08:06:27;;;;;;;11.20;8.80;;;;;;;16.46;98.32;99923.20;107857;1243;60619;-70
2022/09/17 08:09:01;;;;;;;10.30;8.70;;;;;;;16.42;98.82;99911.38;107811;1243;74143;-71
2022/09/17 08:11:30;;;;;;;12.30;9.00;;;;;;;16.39;99.82;99899.56;107812;1243;73321;-71
2022/09/17 08:14:20;;;;;;;9.80;8.60;;;;;;;16.44;99.79;99880.45;107736;1243;61215;-68
2022/09/17 08:16:56;;;;;;;11.70;8.40;;;;;;;16.52;99.38;99878.07;107598;1243;63723;-69
2022/09/17 08:19:27;;;;;;;12.60;9.50;;;;;;;16.58;99.58;99876.48;107850;1243;62226;-69
2022/09/17 08:21:56;;;;;;;11.40;8.30;;;;;;;16.66;99.52;99872.36;107865;1243;60582;-67
2022/09/17 08:24:25;;;;;;;12.70;9.30;;;;;;;16.74;98.82;99873.13;107722;1243;74699;-68
2022/09/17 08:26:53;;;;;;;10.60;8.70;;;;;;;16.75;98.85;99874.77;107755;1243;72633;-68
2022/09/17 08:29:22;;;;;;;13.30;9.40;;;;;;;16.76;98.02;99873.88;107703;1243;69519;-67
2022/09/17 08:31:52;;;;;;;11.60;9.60;;;;;;;16.74;98.53;99880.60;107763;1243;74250;-71
2022/09/17 08:34:21;;;;;;;12.10;10.20;;;;;;;16.75;98.33;99878.39;107831;1243;61262;-68
2022/09/17 08:36:50;;;;;;;13.10;10.30;;;;;;;16.79;97.89;99886.10;107904;1243;61585;-72
2022/09/17 08:39:18;;;;;;;14.00;10.70;;;;;;;16.75;97.95;99880.21;107820;1243;75248;-67
2022/09/17 08:42:13;;;;;;;11.30;10.10;;;;;;;16.79;98.24;99881.27;107805;1244;73243;-67
2022/09/17 08:44:46;;;;;;;12.00;9.90;;;;;;;16.83;98.52;99868.80;107856;1241;72173;-69
2022/09/17 08:47:29;;;;;;;;;;;;;;;16.91;97.34;99865.30;108172;1241;65373;-67
2022/09/17 08:50:03;;;;;;;13.80;11.30;;;;;;;16.93;96.51;99871.07;108009;1241;62177;-69
2022/09/17 08:53:12;;;;;;;12.50;10.50;;;;;;;16.94;96.49;99871.16;107805;1241;58360;-70
2022/09/17 08:56:01;;;;;;;14.30;10.60;;;;;;;16.98;96.28;99872.94;108097;1241;63039;-68
2022/09/17 08:58:53;;;;;;;13.60;9.90;;;;;;;17.01;96.26;99860.04;108074;1241;71900;-68
2022/09/17 09:01:59;;;;;;;19.30;13.30;;;;;;;17.14;95.52;99851.30;107771;1241;71331;-74
2022/09/17 09:05:02;;;;;;;11.80;10.20;;;;;;;17.16;94.81;99853.77;108003;1240;63658;-72
2022/09/17 09:07:41;;;;;;;14.00;10.50;;;;;;;17.15;94.88;99849.48;107936;1243;58971;-75
2022/09/17 09:10:24;;;;;;;13.70;9.80;;;;;;;17.12;94.89;99842.40;108103;1240;58536;-75
2022/09/17 09:12:57;;;;;;;12.20;10.90;;;;;;;17.09;95.03;99840.67;108155;1241;74651;-76
2022/09/17 09:15:41;;;;;;;12.90;10.60;;;;;;;17.16;95.01;99840.52;108210;1241;72095;-76
2022/09/17 09:18:25;;;;;;;12.00;10.00;;;;;;;17.20;94.53;99844.30;108114;1241;68629;-74
2022/09/17 09:20:57;;;;;;;16.60;10.00;;;;;;;17.20;94.27;99846.58;108207;1239;62847;-76
2022/09/17 09:23:44;;;;;;;11.20;9.50;;;;;;;17.28;93.75;99835.27;108141;1241;63305;-76
2022/09/17 09:26:20;;;;;;;13.50;9.90;;;;;;;17.28;93.47;99831.95;108188;1241;59511;-78
2022/09/17 09:29:18;;;;;;;11.50;9.60;;;;;;;17.30;93.73;99835.76;108154;1241;72559;-75
2022/09/17 09:32:18;;;;;;;10.70;9.00;;;;;;;17.34;93.40;99833.83;107979;1241;62806;-75
2022/09/17 09:34:49;;;;;;;10.10;8.20;;;;;;;17.39;92.96;99838.09;108103;1241;60887;-79
2022/09/17 09:37:25;;;;;;;12.40;9.00;;;;;;;17.35;92.57;99839.75;108281;1241;64673;-76
2022/09/17 09:40:04;;;;;;;10.40;8.50;;;;;;;17.35;93.00;99832.56;108279;1241;62939;-73
2022/09/17 09:42:38;;;;;;;11.80;9.80;;;;;;;17.32;93.14;99831.56;108290;1241;60983;-77
2022/09/17 09:45:23;;;;;;;11.30;8.90;;;;;;;17.33;92.92;99831.83;108299;1241;74814;-75
2022/09/17 09:48:09;;;;;;;10.70;9.20;;;;;;;17.34;92.87;99829.67;108301;1241;61544;-74
2022/09/17 09:50:56;;;;;;;12.00;8.70;;;;;;;17.34;93.07;99836.70;108351;1241;70613;-70
2022/09/17 09:54:32;;;;;;;12.30;9.00;;;;;;;17.38;92.72;99847.16;108113;1241;63980;-75
2022/09/17 09:57:14;;;;;;;9.20;7.90;;;;;;;17.31;92.21;99846.58;108197;1241;62808;-76
2022/09/17 09:59:46;;;;;;;11.10;9.10;;;;;;;17.31;92.02;99848.77;108114;1241;61451;-71
2022/09/17 10:02:15;;;;;;;10.60;8.70;;;;;;;17.31;92.18;99851.40;108097;1241;74545;-73
2022/09/17 10:04:47;;;;;;;9.60;8.10;;;;;;;17.32;92.60;99843.79;108370;1241;61488;-74
2022/09/17 10:07:21;;;;;;;10.00;8.50;;;;;;;17.44;91.74;99839.66;108376;1241;69759;-75
2022/09/17 10:10:08;;;;;;;11.00;8.60;;;;;;;17.49;91.77;99850.80;108305;1241;62949;-83
2022/09/17 10:12:37;;;;;;;10.10;8.30;;;;;;;17.51;91.22;99850.27;107963;1241;62301;-80
2022/09/17 10:15:27;;;;;;;9.30;7.40;;;;;;;17.57;91.50;99851.83;108060;1241;60855;-80
2022/09/17 10:18:17;;;;;;;12.90;10.00;;;;;;;17.60;90.78;99849.90;108854;1241;64240;-86
2022/09/17 10:20:59;;;;;;;8.40;7.50;;;;;;;17.59;90.64;99843.41;108248;1241;72721;-84
2022/09/17 10:23:35;;;;;;;9.30;7.80;;;;;;;17.59;90.47;99844.46;108415;1241;59938;-83
2022/09/17 10:26:04;;;;;;;8.50;7.60;;;;;;;17.60;90.07;99846.56;108418;1241;63160;-81
2022/09/17 10:28:54;;;;;;;10.20;8.20;;;;;;;17.54;90.11;99853.08;108181;1241;62618;-84
2022/09/17 10:31:24;;;;;;;10.90;7.90;;;;;;;17.47;90.00;99848.08;108103;1242;59583;-82
2022/09/17 10:34:01;;;;;;;9.90;7.80;;;;;;;17.40;89.93;99841.66;108097;1241;74385;-82
2022/09/17 10:36:45;;;;;;;10.40;7.60;;;;;;;17.35;89.25;99838.16;108144;1241;61383;-83
2022/09/17 10:39:26;;;;;;;10.40;8.30;;;;;;;17.26;89.61;99844.66;108324;1241;59844;-85
2022/09/17 10:42:16;;;;;;;11.60;8.80;;;;;;;17.21;90.26;99850.83;108323;1241;63613;-84
2022/09/17 10:44:54;;;;;;;12.30;9.50;;;;;;;17.14;91.13;99844.64;107850;1243;58260;-81
2022/09/17 10:47:41;;;;;;;9.20;8.20;;;;;;;17.23;90.65;99835.54;107931;1241;59730;-81
2022/09/17 10:50:20;;;;;;;9.70;8.10;;;;;;;17.32;90.29;99828.84;108312;1241;74859;-85
2022/09/17 10:53:06;;;;;;;8.30;7.00;;;;;;;17.27;90.34;99827.85;108090;1243;61168;-82
2022/09/17 10:55:56;;;;;;;9.50;7.80;;;;;;;17.32;90.27;99829.22;108240;1242;60965;-81
2022/09/17 10:58:56;;;;;;;10.00;8.30;;;;;;;17.42;89.55;99834.55;108022;1243;63862;-83
2022/09/17 11:01:48;;;;;;;12.60;8.90;;;;;;;17.45;88.99;99838.73;108287;1241;60062;-83
2022/09/17 11:04:40;;;;;;;8.60;7.00;;;;;;;17.45;88.53;99836.71;108074;1244;59533;-82
2022/09/17 11:07:32;;;;;;;8.60;7.00;;;;;;;17.43;88.50;99839.94;108372;1241;64040;-86
2022/09/17 11:10:17;;;;;;;7.50;5.90;;;;;;;17.40;88.82;99840.13;108327;1241;71440;-83
2022/09/17 11:13:23;;;;;;;8.20;6.30;;;;;;;17.41;88.15;99844.20;108348;1241;60377;-80
2022/09/17 11:16:27;;;;;;;6.20;5.20;;;;;;;17.35;87.95;99841.41;108135;1241;63325;-82
2022/09/17 11:19:21;;;;;;;7.10;5.40;;;;;;;17.31;87.74;99837.11;108084;1242;59564;-86
2022/09/17 11:22:27;;;;;;;9.30;8.30;;;;;;;17.30;87.91;99829.59;108505;1241;61131;-82
2022/09/17 11:25:20;;;;;;;8.70;6.00;;;;;;;17.35;87.84;99831.86;109156;1242;72270;-82
2022/09/17 11:28:27;;;;;;;7.50;5.50;;;;;;;17.39;87.39;99840.21;108533;1241;71720;-81
2022/09/17 11:31:16;;;;;;;6.90;5.30;;;;;;;17.34;87.32;99850.09;107802;1244;71049;-84
2022/09/17 11:34:36;;;;;;;8.00;6.30;;;;;;;17.31;87.21;99843.77;108052;1242;62999;-82
2022/09/17 11:37:31;;;;;;;6.00;5.30;;;;;;;17.31;86.96;99830.58;107830;1241;59594;-86
2022/09/17 11:40:10;;;;;;;6.50;5.00;;;;;;;17.29;87.04;99830.09;108015;1241;59143;-84
2022/09/17 11:43:01;;;;;;;6.90;5.30;;;;;;;17.22;87.45;99826.27;108168;1243;72460;-83
2022/09/17 11:45:44;;;;;;;13.60;8.90;;;;;;;17.25;87.43;99821.73;107923;1243;71762;-79
2022/09/17 11:48:21;;;;;;;7.80;6.20;;;;;;;17.29;87.56;99818.71;107877;1244;59525;-78
2022/09/17 11:51:15;;;;;;;6.60;5.30;;;;;;;17.32;87.39;99822.30;108319;1242;64853;-80
2022/09/17 11:54:18;;;;;;;8.60;6.50;;;;;;;17.27;88.21;99822.95;108332;1241;63319;-80
2022/09/17 11:56:52;;;;;;;6.90;5.80;;;;;;;17.33;87.41;99814.83;108203;1241;59477;-76
2022/09/17 11:59:37;;;;;;;9.40;6.20;;;;;;;17.43;87.25;99810.39;107935;1243;63063;-81
2022/09/17 12:02:55;;;;;;;7.70;6.00;;;;;;;17.45;87.02;99805.33;108156;1241;61604;-80
2022/09/17 12:05:45;;;;;;;9.50;6.60;;;;;;;17.47;87.10;99800.23;108196;1241;59643;-80